createdAt,value
2022-08-19T00:02:26.717Z,99067.38
2022-08-19T00:04:57.038Z,99061.22
2022-08-19T00:07:28.417Z,99072.59
2022-08-19T00:09:58.543Z,99075.56
2022-08-19T00:12:29.155Z,99067.00
2022-08-19T00:14:59.700Z,99070.47
2022-08-19T00:17:29.722Z,99068.56
2022-08-19T00:20:00.461Z,99071.50
2022-08-19T00:22:32.483Z,99072.69
2022-08-19T00:25:02.805Z,99078.28
2022-08-19T00:27:34.283Z,99071.75
2022-08-19T00:30:05.555Z,99071.75
2022-08-19T00:32:36.363Z,99074.34
2022-08-19T00:35:07.389Z,99067.25
2022-08-19T00:37:39.083Z,99066.66
2022-08-19T00:40:10.385Z,99068.53
2022-08-19T00:42:40.217Z,99072.34
2022-08-19T00:45:15.875Z,99067.00
2022-08-19T00:47:46.595Z,99061.47
2022-08-19T00:50:20.632Z,99073.41
2022-08-19T00:52:53.078Z,99067.81
2022-08-19T00:55:26.151Z,99069.81
2022-08-19T00:58:00.349Z,99059.63
2022-08-19T01:00:31.941Z,99074.47
2022-08-19T01:03:01.795Z,99067.25
2022-08-19T01:05:32.099Z,99069.16
2022-08-19T01:08:06.799Z,99059.53
2022-08-19T01:10:44.155Z,99069.03
2022-08-19T01:13:16.380Z,99057.50
2022-08-19T01:15:50.102Z,99073.75
2022-08-19T01:18:22.368Z,99067.81
2022-08-19T01:20:54.208Z,99068.19
2022-08-19T01:23:43.408Z,99078.41
2022-08-19T01:26:16.491Z,99067.72
2022-08-19T01:28:49.680Z,99073.19
2022-08-19T01:31:27.117Z,99073.06
2022-08-19T01:33:59.159Z,99078.41
2022-08-19T01:36:32.923Z,99068.09
2022-08-19T01:39:09.981Z,99078.75
2022-08-19T01:41:40.030Z,99071.16
2022-08-19T01:44:18.501Z,99075.31
2022-08-19T01:46:50.369Z,99073.78
2022-08-19T01:49:24.050Z,99078.28
2022-08-19T01:51:54.545Z,99072.81
2022-08-19T01:54:27.805Z,99078.03
2022-08-19T01:57:01.531Z,99072.91
2022-08-19T01:59:32.676Z,99075.78
2022-08-19T02:02:02.757Z,99070.69
2022-08-19T02:04:32.553Z,99069.63
2022-08-19T02:07:02.802Z,99075.16
2022-08-19T02:09:34.655Z,99077.97
2022-08-19T02:12:05.906Z,99078.88
2022-08-19T02:14:36.287Z,99091.91
2022-08-19T02:17:06.732Z,99081.97
2022-08-19T02:19:36.628Z,99087.53
2022-08-19T02:22:10.979Z,99094.50
2022-08-19T02:24:42.434Z,99091.69
2022-08-19T02:27:12.555Z,99100.78
2022-08-19T02:29:43.057Z,99095.16
2022-08-19T02:32:13.081Z,99103.19
2022-08-19T02:34:43.652Z,99058.72
2022-08-19T02:37:35.091Z,99099.88
2022-08-19T02:40:12.492Z,99103.53
2022-08-19T02:42:44.106Z,99092.94
2022-08-19T02:45:15.035Z,99096.28
2022-08-19T02:47:45.024Z,99116.84
2022-08-19T02:50:15.654Z,99116.84
2022-08-19T02:52:46.411Z,99119.56
2022-08-19T02:55:17.843Z,99121.97
2022-08-19T02:57:47.791Z,99120.56
2022-08-19T03:00:18.664Z,99132.09
2022-08-19T03:02:49.791Z,99129.38
2022-08-19T03:05:20.747Z,99140.66
2022-08-19T03:08:13.298Z,99111.47
2022-08-19T03:10:47.934Z,99136.25
2022-08-19T03:13:20.144Z,99136.22
2022-08-19T03:15:50.734Z,99117.75
2022-08-19T03:18:20.621Z,99129.47
2022-08-19T03:20:55.612Z,99139.69
2022-08-19T03:23:26.033Z,99139.00
2022-08-19T03:26:03.811Z,99093.72
2022-08-19T03:28:51.365Z,99148.59
2022-08-19T03:31:43.900Z,99135.88
2022-08-19T03:34:16.788Z,99148.75
2022-08-19T03:36:49.275Z,99147.97
2022-08-19T03:39:19.556Z,99155.09
2022-08-19T03:42:29.200Z,99148.38
2022-08-19T03:44:43.354Z,99165.84
2022-08-19T03:47:17.081Z,99161.28
2022-08-19T03:49:47.338Z,99158.50
2022-08-19T03:52:17.321Z,99166.88
2022-08-19T03:54:47.178Z,99166.38
2022-08-19T03:57:18.550Z,99149.06
2022-08-19T03:59:48.606Z,99166.50
2022-08-19T04:02:18.496Z,99155.16
2022-08-19T04:04:48.692Z,99163.06
2022-08-19T04:07:19.163Z,99167.94
2022-08-19T04:09:49.297Z,99169.47
2022-08-19T04:12:21.825Z,99179.28
2022-08-19T04:14:52.393Z,99179.41
2022-08-19T04:17:22.350Z,99181.84
2022-08-19T04:19:52.390Z,99182.34
2022-08-19T04:22:22.360Z,99188.94
2022-08-19T04:24:52.269Z,99178.25
2022-08-19T04:27:23.569Z,99184.47
2022-08-19T04:29:53.570Z,99187.28
2022-08-19T04:32:23.687Z,99187.88
2022-08-19T04:35:01.208Z,99183.50
2022-08-19T04:37:35.014Z,99181.16
2022-08-19T04:40:25.340Z,99181.09
2022-08-19T04:42:57.423Z,99183.81
2022-08-19T04:45:27.482Z,99178.16
2022-08-19T04:48:26.490Z,99182.94
2022-08-19T04:50:49.265Z,99182.84
2022-08-19T04:53:19.080Z,99186.88
2022-08-19T04:55:48.959Z,99185.72
2022-08-19T04:58:20.507Z,99182.00
2022-08-19T05:00:50.620Z,99186.13
2022-08-19T05:03:21.346Z,99183.69
2022-08-19T05:05:51.385Z,99183.97
2022-08-19T05:08:31.362Z,99177.88
2022-08-19T05:11:02.377Z,99189.44
2022-08-19T05:13:34.128Z,99181.91
2022-08-19T05:16:05.911Z,99188.47
2022-08-19T05:19:04.516Z,99184.00
2022-08-19T05:21:53.642Z,99185.69
2022-08-19T05:24:25.217Z,99192.47
2022-08-19T05:26:58.958Z,99194.94
2022-08-19T05:29:36.419Z,99183.34
2022-08-19T05:32:09.809Z,99181.69
2022-08-19T05:34:40.576Z,99191.19
2022-08-19T05:37:10.701Z,99181.69
2022-08-19T05:39:41.436Z,99181.19
2022-08-19T05:42:14.142Z,99160.78
2022-08-19T05:44:46.187Z,99175.91
2022-08-19T05:47:16.940Z,99180.91
2022-08-19T05:49:47.996Z,99186.88
2022-08-19T05:52:18.864Z,99188.66
2022-08-19T05:54:52.067Z,99191.00
2022-08-19T05:57:22.194Z,99191.44
2022-08-19T05:59:58.048Z,99197.56
2022-08-19T06:02:29.580Z,99197.06
2022-08-19T06:05:02.538Z,99195.91
2022-08-19T06:07:32.607Z,99204.59
2022-08-19T06:10:02.690Z,99194.50
2022-08-19T06:12:36.050Z,99197.16
2022-08-19T06:15:10.923Z,99203.31
2022-08-19T06:17:42.740Z,99202.72
2022-08-19T06:20:15.343Z,99202.91
2022-08-19T06:22:47.499Z,99209.09
2022-08-19T06:25:18.131Z,99209.19
2022-08-19T06:28:13.502Z,99211.28
2022-08-19T06:30:39.704Z,99204.31
2022-08-19T06:33:09.631Z,99217.75
2022-08-19T06:35:42.120Z,99212.06
2022-08-19T06:38:12.315Z,99209.84
2022-08-19T06:40:45.298Z,99215.81
2022-08-19T06:43:16.945Z,99215.44
2022-08-19T06:45:53.599Z,99217.75
2022-08-19T06:48:23.834Z,99219.72
2022-08-19T06:50:56.070Z,99215.97
2022-08-19T06:53:26.182Z,99202.53
2022-08-19T06:56:03.227Z,99216.19
2022-08-19T06:58:34.001Z,99220.09
2022-08-19T07:01:09.101Z,99212.81
2022-08-19T07:03:40.776Z,99213.94
2022-08-19T07:06:39.427Z,99216.69
2022-08-19T07:09:07.993Z,99161.06
2022-08-19T07:11:38.514Z,99216.81
2022-08-19T07:14:18.899Z,99222.13
2022-08-19T07:16:53.299Z,99213.13
2022-08-19T07:19:25.552Z,99173.50
2022-08-19T07:21:56.528Z,99192.03
2022-08-19T07:24:28.528Z,99203.16
2022-08-19T07:27:06.806Z,99203.75
2022-08-19T07:29:46.916Z,99200.25
2022-08-19T07:32:28.034Z,99202.59
2022-08-19T07:34:58.412Z,99201.78
2022-08-19T07:37:33.075Z,99196.56
2022-08-19T07:40:04.076Z,99204.31
2022-08-19T07:42:33.989Z,99200.56
2022-08-19T07:45:04.596Z,99203.13
2022-08-19T07:47:48.810Z,99206.16
2022-08-19T07:50:22.687Z,99193.28
2022-08-19T07:52:52.771Z,99196.59
2022-08-19T07:55:42.352Z,99203.44
2022-08-19T07:58:15.850Z,99198.31
2022-08-19T08:00:47.222Z,99201.66
2022-08-19T08:03:21.130Z,99194.31
2022-08-19T08:06:08.685Z,99208.31
2022-08-19T08:09:01.207Z,99196.25
2022-08-19T08:11:31.344Z,99196.50
2022-08-19T08:14:04.602Z,99200.41
2022-08-19T08:16:39.537Z,99195.78
2022-08-19T08:19:25.727Z,99195.06
2022-08-19T08:21:57.523Z,99190.69
2022-08-19T08:24:29.134Z,99192.34
2022-08-19T08:27:01.266Z,99190.16
2022-08-19T08:29:34.758Z,99193.75
2022-08-19T08:32:13.942Z,99185.00
2022-08-19T08:34:47.453Z,99181.97
2022-08-19T08:37:23.151Z,99181.19
2022-08-19T08:39:53.094Z,99187.50
2022-08-19T08:42:29.471Z,99177.34
2022-08-19T08:45:02.283Z,99176.53
2022-08-19T08:47:37.223Z,99168.28
2022-08-19T08:50:15.663Z,99176.53
2022-08-19T08:52:49.403Z,99178.72
2022-08-19T08:55:20.503Z,99180.06
2022-08-19T08:57:55.847Z,99174.56
2022-08-19T09:00:29.933Z,99172.38
2022-08-19T09:03:02.024Z,99170.75
2022-08-19T09:05:48.436Z,99167.44
2022-08-19T09:08:28.410Z,99169.66
2022-08-19T09:10:59.433Z,99161.94
2022-08-19T09:13:38.812Z,99166.34
2022-08-19T09:16:13.978Z,99158.13
2022-08-19T09:18:46.966Z,99152.06
2022-08-19T09:21:20.045Z,99145.44
2022-08-19T09:23:52.168Z,99146.00
2022-08-19T09:26:24.466Z,99154.00
2022-08-19T09:29:14.836Z,99155.38
2022-08-19T09:31:44.745Z,99153.16
2022-08-19T09:34:21.367Z,99149.88
2022-08-19T09:36:54.708Z,99146.81
2022-08-19T09:39:24.956Z,99143.19
2022-08-19T09:42:16.386Z,99146.78
2022-08-19T09:44:50.220Z,99151.16
2022-08-19T09:47:20.134Z,99142.88
2022-08-19T09:49:53.070Z,99144.81
2022-08-19T09:52:24.292Z,99135.22
2022-08-19T09:54:55.170Z,99127.00
2022-08-19T09:57:25.043Z,99136.91
2022-08-19T09:59:55.589Z,99136.31
2022-08-19T10:02:25.865Z,99115.69
2022-08-19T10:05:16.742Z,99140.13
2022-08-19T10:07:54.477Z,99130.50
2022-08-19T10:10:26.828Z,99122.75
2022-08-19T10:12:57.426Z,99124.13
2022-08-19T10:15:29.216Z,99118.38
2022-08-19T10:18:00.840Z,99125.50
2022-08-19T10:20:31.739Z,99123.31
2022-08-19T10:23:03.120Z,99129.66
2022-08-19T10:25:36.066Z,99123.31
2022-08-19T10:28:10.656Z,99108.16
2022-08-19T10:30:42.441Z,99120.97
2022-08-19T10:33:12.332Z,99119.41
2022-08-19T10:35:56.773Z,99119.06
2022-08-19T10:38:31.820Z,99112.00
2022-08-19T10:41:09.628Z,99111.44
2022-08-19T10:43:40.913Z,99108.56
2022-08-19T10:46:16.696Z,99069.59
2022-08-19T10:48:47.416Z,99102.19
2022-08-19T10:51:35.487Z,99105.97
2022-08-19T10:54:06.999Z,99107.06
2022-08-19T10:56:53.641Z,99096.56
2022-08-19T10:59:31.419Z,99095.47
2022-08-19T11:02:06.135Z,99091.09
2022-08-19T11:04:36.076Z,99080.91
2022-08-19T11:07:07.108Z,99080.03
2022-08-19T11:09:42.954Z,99059.91
2022-08-19T11:12:14.701Z,99081.41
2022-08-19T11:14:45.186Z,99077.88
2022-08-19T11:17:16.431Z,99078.72
2022-08-19T11:19:46.788Z,99084.25
2022-08-19T11:22:16.759Z,99076.97
2022-08-19T11:24:50.838Z,99062.94
2022-08-19T11:27:20.753Z,99064.06
2022-08-19T11:29:50.809Z,99056.88
2022-08-19T11:32:20.835Z,99059.75
2022-08-19T11:34:50.832Z,99055.19
2022-08-19T11:37:20.877Z,99054.81
2022-08-19T11:39:53.517Z,99046.44
2022-08-19T11:42:41.374Z,99045.72
2022-08-19T11:45:11.949Z,99044.88
2022-08-19T11:47:41.916Z,99045.88
2022-08-19T11:50:12.125Z,99045.44
2022-08-19T11:52:46.022Z,99036.88
2022-08-19T11:55:17.716Z,99036.19
2022-08-19T11:57:47.901Z,99031.94
2022-08-19T12:00:18.459Z,99035.81
2022-08-19T12:02:48.667Z,99030.56
2022-08-19T12:05:18.862Z,99029.50
2022-08-19T12:07:49.067Z,99025.91
2022-08-19T12:10:24.540Z,99028.22
2022-08-19T12:12:58.800Z,99018.03
2022-08-19T12:15:37.132Z,99015.72
2022-08-19T12:18:08.174Z,99021.22
2022-08-19T12:20:40.597Z,99008.84
2022-08-19T12:23:11.358Z,99014.50
2022-08-19T12:25:49.381Z,99013.38
2022-08-19T12:28:20.091Z,99012.88
2022-08-19T12:30:52.322Z,99018.41
2022-08-19T12:33:25.293Z,99021.13
2022-08-19T12:35:55.726Z,99020.13
2022-08-19T12:38:25.583Z,99016.88
2022-08-19T12:41:00.203Z,99013.41
2022-08-19T12:43:31.401Z,99020.91
2022-08-19T12:46:01.372Z,99009.16
2022-08-19T12:48:33.615Z,99020.63
2022-08-19T12:51:08.941Z,99002.59
2022-08-19T12:53:39.252Z,99007.03
2022-08-19T12:56:15.345Z,99005.63
2022-08-19T12:58:48.822Z,98990.94
2022-08-19T13:01:22.005Z,98964.00
2022-08-19T13:03:54.422Z,98996.59
2022-08-19T13:06:24.231Z,98996.47
2022-08-19T13:08:59.015Z,98986.72
2022-08-19T13:11:33.439Z,98984.66
2022-08-19T13:14:05.927Z,98992.16
2022-08-19T13:16:36.418Z,98984.75
2022-08-19T13:19:06.896Z,98991.00
2022-08-19T13:21:37.272Z,98971.97
2022-08-19T13:24:07.511Z,98979.50
2022-08-19T13:26:38.684Z,98982.09
2022-08-19T13:29:26.327Z,98978.50
2022-08-19T13:32:13.724Z,98973.47
2022-08-19T13:34:48.803Z,98968.44
2022-08-19T13:37:38.625Z,98967.94
2022-08-19T13:40:12.587Z,98972.56
2022-08-19T13:42:44.749Z,98969.50
2022-08-19T13:45:16.151Z,98969.97
2022-08-19T13:47:48.230Z,98972.75
2022-08-19T13:50:20.533Z,98969.63
2022-08-19T13:52:50.820Z,98973.63
2022-08-19T13:55:24.885Z,98977.03
2022-08-19T13:57:58.081Z,98970.69
2022-08-19T14:00:31.836Z,98972.75
2022-08-19T14:03:04.313Z,98969.38
2022-08-19T14:05:38.258Z,98950.56
2022-08-19T14:08:08.087Z,98934.13
2022-08-19T14:10:38.132Z,98963.28
2022-08-19T14:13:10.198Z,98953.81
2022-08-19T14:15:40.873Z,98963.41
2022-08-19T14:18:10.751Z,98965.53
2022-08-19T14:20:40.858Z,98961.03
2022-08-19T14:23:11.748Z,98962.22
2022-08-19T14:25:42.027Z,98958.13
2022-08-19T14:28:13.439Z,98950.38
2022-08-19T14:30:45.519Z,98962.47
2022-08-19T14:33:15.427Z,98947.41
2022-08-19T14:35:45.713Z,98957.59
2022-08-19T14:38:18.616Z,98951.50
2022-08-19T14:40:58.229Z,98950.38
2022-08-19T14:43:29.452Z,98948.81
2022-08-19T14:45:59.339Z,98954.72
2022-08-19T14:48:29.952Z,98953.66
2022-08-19T14:50:59.857Z,98956.78
2022-08-19T14:53:29.593Z,98947.72
2022-08-19T14:55:59.836Z,98948.81
2022-08-19T14:58:31.520Z,98941.66
2022-08-19T15:01:01.910Z,98948.25
2022-08-19T15:03:32.961Z,98940.66
2022-08-19T15:06:04.573Z,98941.50
2022-08-19T15:08:37.884Z,98929.41
2022-08-19T15:11:11.686Z,98943.13
2022-08-19T15:13:47.482Z,98944.47
2022-08-19T15:16:19.178Z,98946.22
2022-08-19T15:18:57.904Z,98934.19
2022-08-19T15:21:29.248Z,98938.81
2022-08-19T15:24:01.853Z,98934.84
2022-08-19T15:26:33.701Z,98934.66
2022-08-19T15:29:07.092Z,98940.00
2022-08-19T15:31:38.216Z,98938.84
2022-08-19T15:34:08.761Z,98931.31
2022-08-19T15:36:39.252Z,98931.41
2022-08-19T15:39:10.214Z,98929.50
2022-08-19T15:41:41.175Z,98932.19
2022-08-19T15:44:16.427Z,98925.75
2022-08-19T15:46:47.807Z,98921.94
2022-08-19T15:49:19.284Z,98936.00
2022-08-19T15:51:51.890Z,98931.28
2022-08-19T15:54:22.758Z,98931.88
2022-08-19T15:57:07.413Z,98940.44
2022-08-19T15:59:57.151Z,98933.56
2022-08-19T16:02:49.024Z,98934.47
2022-08-19T16:05:44.231Z,98924.69
2022-08-19T16:08:15.483Z,98936.22
2022-08-19T16:10:45.461Z,98936.03
2022-08-19T16:13:15.810Z,98939.69
2022-08-19T16:15:47.704Z,98927.75
2022-08-19T16:18:17.961Z,98932.75
2022-08-19T16:20:48.591Z,98933.59
2022-08-19T16:23:18.795Z,98934.19
2022-08-19T16:25:48.713Z,98935.91
2022-08-19T16:28:19.468Z,98944.63
2022-08-19T16:30:51.047Z,98943.59
2022-08-19T16:33:22.966Z,98939.50
2022-08-19T16:36:07.358Z,98950.03
2022-08-19T16:38:38.746Z,98949.25
2022-08-19T16:41:09.448Z,98947.25
2022-08-19T16:43:40.092Z,98949.16
2022-08-19T16:46:11.449Z,98946.22
2022-08-19T16:48:46.330Z,98948.97
2022-08-19T16:51:16.791Z,98948.19
2022-08-19T16:53:47.108Z,98952.59
2022-08-19T16:56:17.178Z,98945.78
2022-08-19T16:58:47.080Z,98945.53
2022-08-19T17:01:19.381Z,98954.91
2022-08-19T17:03:50.540Z,98951.59
2022-08-19T17:06:25.040Z,98953.00
2022-08-19T17:09:01.829Z,98958.00
2022-08-19T17:11:33.019Z,98960.47
2022-08-19T17:14:05.455Z,98971.22
2022-08-19T17:16:38.236Z,98974.53
2022-08-19T17:19:09.809Z,98972.59
2022-08-19T17:21:40.691Z,98960.47
2022-08-19T17:24:12.303Z,98978.09
2022-08-19T17:26:42.453Z,98977.31
2022-08-19T17:29:12.594Z,98986.38
2022-08-19T17:31:44.543Z,98985.84
2022-08-19T17:34:14.707Z,98984.50
2022-08-19T17:36:44.526Z,98986.72
2022-08-19T17:39:14.601Z,98979.81
2022-08-19T17:41:44.678Z,98989.75
2022-08-19T17:44:14.682Z,98989.22
2022-08-19T17:46:46.842Z,98991.44
2022-08-19T17:49:17.995Z,99001.34
2022-08-19T17:51:49.615Z,98995.53
2022-08-19T17:54:20.737Z,99004.91
2022-08-19T17:56:50.579Z,99009.03
2022-08-19T17:59:20.757Z,99006.56
2022-08-19T18:01:57.412Z,99007.91
2022-08-19T18:04:29.878Z,99019.47
2022-08-19T18:07:01.072Z,99025.50
2022-08-19T18:09:41.461Z,99022.50
2022-08-19T18:12:15.714Z,99028.25
2022-08-19T18:14:46.613Z,99028.81
2022-08-19T18:17:19.362Z,99032.66
2022-08-19T18:19:49.283Z,99035.69
2022-08-19T18:22:26.750Z,99044.19
2022-08-19T18:24:57.532Z,99037.03
2022-08-19T18:27:28.849Z,99040.88
2022-08-19T18:29:59.798Z,99046.59
2022-08-19T18:32:33.461Z,99043.03
2022-08-19T18:35:06.421Z,99049.34
2022-08-19T18:37:36.696Z,99044.94
2022-08-19T18:40:25.221Z,99055.66
2022-08-19T18:43:13.046Z,99045.19
2022-08-19T18:46:02.526Z,99066.06
2022-08-19T18:48:51.080Z,99068.00
2022-08-19T18:51:23.285Z,99069.94
2022-08-19T18:53:57.324Z,99072.66
2022-08-19T18:56:31.208Z,99072.09
2022-08-19T18:59:01.920Z,99072.38
2022-08-19T19:01:35.544Z,99079.50
2022-08-19T19:04:10.667Z,99079.19
2022-08-19T19:06:43.443Z,99081.38
2022-08-19T19:09:16.442Z,99078.06
2022-08-19T19:11:48.400Z,99089.00
2022-08-19T19:14:45.651Z,99084.91
2022-08-19T19:17:14.167Z,99094.19
2022-08-19T19:19:45.895Z,99096.38
2022-08-19T19:22:20.207Z,99102.94
2022-08-19T19:24:50.826Z,99101.81
2022-08-19T19:27:21.457Z,99095.19
2022-08-19T19:29:52.811Z,99102.09
2022-08-19T19:32:26.158Z,99103.66
2022-08-19T19:34:57.933Z,99105.28
2022-08-19T19:37:28.960Z,99104.75
2022-08-19T19:39:58.800Z,99108.03
2022-08-19T19:42:28.856Z,99107.44
2022-08-19T19:45:00.439Z,99098.66
2022-08-19T19:47:31.046Z,99101.88
2022-08-19T19:50:18.102Z,99099.63
2022-08-19T19:52:48.123Z,99110.59
2022-08-19T19:55:19.096Z,99080.53
2022-08-19T19:57:49.836Z,99109.97
2022-08-19T20:00:20.987Z,99109.09
2022-08-19T20:02:51.407Z,99111.06
2022-08-19T20:05:24.169Z,99117.00
2022-08-19T20:08:12.426Z,99113.19
2022-08-19T20:10:44.014Z,99114.78
2022-08-19T20:13:15.585Z,99126.09
2022-08-19T20:15:46.021Z,99125.75
2022-08-19T20:18:15.944Z,99129.34
2022-08-19T20:20:50.175Z,99120.28
2022-08-19T20:23:20.623Z,99129.28
2022-08-19T20:25:51.915Z,99129.25
2022-08-19T20:28:23.050Z,99128.03
2022-08-19T20:30:53.218Z,99117.03
2022-08-19T20:33:23.228Z,99126.28
2022-08-19T20:35:54.593Z,99136.44
2022-08-19T20:38:24.564Z,99132.28
2022-08-19T20:40:54.657Z,99139.31
2022-08-19T20:43:25.772Z,99151.06
2022-08-19T20:45:55.913Z,99149.41
2022-08-19T20:48:25.929Z,99147.63
2022-08-19T20:50:58.848Z,99153.22
2022-08-19T20:53:28.914Z,99153.81
2022-08-19T20:56:00.069Z,99156.72
2022-08-19T20:58:30.342Z,99153.63
2022-08-19T21:01:02.780Z,99159.88
2022-08-19T21:03:42.901Z,99154.28
2022-08-19T21:06:15.584Z,99147.91
2022-08-19T21:08:45.531Z,99143.22
2022-08-19T21:11:20.592Z,99146.22
2022-08-19T21:13:51.251Z,99152.63
2022-08-19T21:16:21.679Z,99148.91
2022-08-19T21:18:51.587Z,99149.72
2022-08-19T21:21:22.875Z,99149.72
2022-08-19T21:23:52.996Z,99151.56
2022-08-19T21:26:24.424Z,99149.88
2022-08-19T21:28:54.656Z,99147.31
2022-08-19T21:31:24.658Z,99140.31
2022-08-19T21:33:54.828Z,99152.72
2022-08-19T21:36:26.182Z,99141.56
2022-08-19T21:38:56.448Z,99121.34
2022-08-19T21:41:26.385Z,99148.00
2022-08-19T21:43:56.380Z,99153.25
2022-08-19T21:46:26.289Z,99144.16
2022-08-19T21:48:56.490Z,99143.59
2022-08-19T21:51:27.932Z,99157.13
2022-08-19T21:53:58.182Z,99152.16
2022-08-19T21:56:28.096Z,99145.03
2022-08-19T21:58:59.244Z,99144.78
2022-08-19T22:01:29.155Z,99145.41
2022-08-19T22:03:59.058Z,99148.31
2022-08-19T22:06:30.410Z,99153.25
2022-08-19T22:09:00.499Z,99146.50
2022-08-19T22:11:31.854Z,99137.81
2022-08-19T22:14:04.319Z,99144.34
2022-08-19T22:16:34.686Z,99142.63
2022-08-19T22:19:04.922Z,99131.09
2022-08-19T22:21:40.741Z,99135.91
2022-08-19T22:24:11.281Z,99139.97
2022-08-19T22:26:41.173Z,99139.72
2022-08-19T22:29:15.652Z,99141.31
2022-08-19T22:31:54.319Z,99137.47
2022-08-19T22:34:25.948Z,99140.91
2022-08-19T22:36:57.439Z,99136.25
2022-08-19T22:39:27.335Z,99128.28
2022-08-19T22:41:57.196Z,99145.22
2022-08-19T22:44:27.787Z,99138.72
2022-08-19T22:46:57.897Z,99133.75
2022-08-19T22:49:27.841Z,99137.09
2022-08-19T22:52:18.399Z,99129.84
2022-08-19T22:54:48.755Z,99129.38
2022-08-19T22:57:20.390Z,99126.34
2022-08-19T22:59:52.438Z,99129.69
2022-08-19T23:02:24.814Z,99121.97
2022-08-19T23:04:55.014Z,99126.09
2022-08-19T23:07:26.269Z,99123.78
2022-08-19T23:09:56.692Z,99132.81
2022-08-19T23:12:30.622Z,99109.50
2022-08-19T23:15:03.073Z,99126.56
2022-08-19T23:17:33.685Z,99131.28
2022-08-19T23:20:05.027Z,99125.03
2022-08-19T23:22:39.423Z,99129.94
2022-08-19T23:25:14.173Z,99129.63
2022-08-19T23:28:01.485Z,99135.56
2022-08-19T23:30:33.510Z,99122.88
2022-08-19T23:33:12.321Z,99135.63
2022-08-19T23:35:43.019Z,99130.16
2022-08-19T23:38:14.291Z,99127.19
2022-08-19T23:40:44.489Z,99128.94
2022-08-19T23:43:20.419Z,99127.03
2022-08-19T23:45:57.424Z,99122.25
2022-08-19T23:48:28.516Z,99118.59
2022-08-19T23:50:58.731Z,99122.75
2022-08-19T23:53:30.326Z,99124.06
2022-08-19T23:56:00.788Z,99125.88
2022-08-19T23:58:31.956Z,99124.22
